createdAt,value
2019-03-18T00:00:21.040Z,4.27
2019-03-18T00:02:49.528Z,5.23
2019-03-18T00:05:17.979Z,6.83
2019-03-18T00:07:46.831Z,4.03
2019-03-18T00:10:15.403Z,7.00
2019-03-18T00:12:43.829Z,7.70
2019-03-18T00:15:12.493Z,7.13
2019-03-18T00:17:41.011Z,4.37
2019-03-18T00:20:10.573Z,7.17
2019-03-18T00:22:39.092Z,5.03
2019-03-18T00:25:15.307Z,5.90
2019-03-18T00:27:43.914Z,8.97
2019-03-18T00:30:17.267Z,5.67
2019-03-18T00:32:45.734Z,6.63
2019-03-18T00:35:14.261Z,5.53
2019-03-18T00:37:42.768Z,7.20
2019-03-18T00:40:13.741Z,6.53
2019-03-18T00:42:42.263Z,6.97
2019-03-18T00:45:15.039Z,8.07
2019-03-18T00:47:41.831Z,5.03
2019-03-18T00:50:14.936Z,7.80
2019-03-18T00:52:44.067Z,9.00
2019-03-18T00:55:12.628Z,9.77
2019-03-18T00:57:41.100Z,7.03
2019-03-18T01:00:12.633Z,6.03
2019-03-18T01:02:41.087Z,8.73
2019-03-18T01:05:09.861Z,8.57
2019-03-18T01:07:38.318Z,7.23
2019-03-18T01:10:09.639Z,8.30
2019-03-18T01:12:38.155Z,7.10
2019-03-18T01:15:09.107Z,6.30
2019-03-18T01:17:37.557Z,8.30
2019-03-18T01:20:08.635Z,10.17
2019-03-18T01:22:37.086Z,10.07
2019-03-18T01:25:07.053Z,7.30
2019-03-18T01:27:35.517Z,9.27
2019-03-18T01:30:07.172Z,7.37
2019-03-18T01:32:35.695Z,6.03
2019-03-18T01:35:04.639Z,7.90
2019-03-18T01:37:33.106Z,10.17
2019-03-18T01:40:01.556Z,5.40
2019-03-18T01:42:30.069Z,11.87
2019-03-18T01:44:58.532Z,7.77
2019-03-18T01:47:26.968Z,8.87
2019-03-18T01:49:55.399Z,6.80
2019-03-18T01:52:23.819Z,7.60
2019-03-18T01:54:52.354Z,6.23
2019-03-18T01:57:20.815Z,9.90
2019-03-18T01:59:49.267Z,9.77
2019-03-18T02:02:17.708Z,7.20
2019-03-18T02:04:46.150Z,5.97
2019-03-18T02:07:14.764Z,7.27
2019-03-18T02:09:43.211Z,6.30
2019-03-18T02:12:11.640Z,6.17
2019-03-18T02:14:40.087Z,7.47
2019-03-18T02:17:08.512Z,11.37
2019-03-18T02:19:36.962Z,5.83
2019-03-18T02:22:05.525Z,7.17
2019-03-18T02:24:34.005Z,8.80
2019-03-18T02:27:02.424Z,8.67
2019-03-18T02:29:30.907Z,7.80
2019-03-18T02:31:59.333Z,7.73
2019-03-18T02:34:27.749Z,8.27
2019-03-18T02:36:56.213Z,5.40
2019-03-18T02:39:24.631Z,7.00
2019-03-18T02:41:53.087Z,11.47
2019-03-18T02:44:21.507Z,7.43
2019-03-18T02:46:49.988Z,8.70
2019-03-18T02:49:18.537Z,5.30
2019-03-18T02:51:47.003Z,6.20
2019-03-18T02:54:15.431Z,5.03
2019-03-18T02:56:43.868Z,7.40
2019-03-18T02:59:12.306Z,7.00
2019-03-18T03:01:41.124Z,6.07
2019-03-18T03:04:09.579Z,6.33
2019-03-18T03:06:38.032Z,6.17
2019-03-18T03:09:07.598Z,4.57
2019-03-18T03:11:36.158Z,7.50
2019-03-18T03:14:04.667Z,5.40
2019-03-18T03:16:33.111Z,5.20
2019-03-18T03:19:01.530Z,6.53
2019-03-18T03:21:29.981Z,7.80
2019-03-18T03:23:58.409Z,3.40
2019-03-18T03:26:26.926Z,5.37
2019-03-18T03:28:55.388Z,6.77
2019-03-18T03:31:23.796Z,6.27
2019-03-18T03:33:52.289Z,6.80
2019-03-18T03:36:20.754Z,5.93
2019-03-18T03:38:49.215Z,6.00
2019-03-18T03:41:18.446Z,5.97
2019-03-18T03:43:47.176Z,5.73
2019-03-18T03:46:15.613Z,7.70
2019-03-18T03:48:44.152Z,4.13
2019-03-18T03:51:12.560Z,7.47
2019-03-18T03:53:41.254Z,4.50
2019-03-18T03:56:10.501Z,6.00
2019-03-18T03:58:39.017Z,6.47
2019-03-18T04:01:07.433Z,6.07
2019-03-18T04:03:38.658Z,5.93
2019-03-18T04:06:06.096Z,7.67
2019-03-18T04:08:34.563Z,3.97
2019-03-18T04:11:03.220Z,5.97
2019-03-18T04:13:31.679Z,4.20
2019-03-18T04:16:00.173Z,5.17
2019-03-18T04:18:28.691Z,6.67
2019-03-18T04:20:57.156Z,8.33
2019-03-18T04:23:25.617Z,5.83
2019-03-18T04:25:54.305Z,7.87
2019-03-18T04:28:22.798Z,6.73
2019-03-18T04:30:51.221Z,4.47
2019-03-18T04:33:19.647Z,6.57
2019-03-18T04:35:48.088Z,7.83
2019-03-18T04:38:16.556Z,7.20
2019-03-18T04:40:45.039Z,6.03
2019-03-18T04:43:13.568Z,5.33
2019-03-18T04:45:42.230Z,7.40
2019-03-18T04:48:10.829Z,8.10
2019-03-18T04:50:39.282Z,8.73
2019-03-18T04:53:07.710Z,8.90
2019-03-18T04:55:36.162Z,9.03
2019-03-18T04:58:04.599Z,6.83
2019-03-18T05:00:33.045Z,7.47
2019-03-18T05:03:01.483Z,10.73
2019-03-18T05:05:29.932Z,6.77
2019-03-18T05:07:58.364Z,7.17
2019-03-18T05:10:26.821Z,8.23
2019-03-18T05:12:55.290Z,11.40
2019-03-18T05:15:23.793Z,13.23
2019-03-18T05:17:52.312Z,9.43
2019-03-18T05:20:20.789Z,27.80
2019-03-18T05:22:49.207Z,17.13
2019-03-18T05:25:17.739Z,9.13
2019-03-18T05:27:46.200Z,12.93
2019-03-18T05:30:14.974Z,9.77
2019-03-18T05:32:43.483Z,8.07
2019-03-18T05:35:12.041Z,7.70
2019-03-18T05:37:40.533Z,11.90
2019-03-18T05:40:09.263Z,10.40
2019-03-18T05:42:37.931Z,8.77
2019-03-18T05:45:08.987Z,9.70
2019-03-18T05:47:39.585Z,8.67
2019-03-18T05:50:09.537Z,11.90
2019-03-18T05:52:38.052Z,8.80
2019-03-18T05:55:07.723Z,8.37
2019-03-18T05:57:36.187Z,11.03
2019-03-18T06:00:12.558Z,10.77
2019-03-18T06:02:41.007Z,12.00
2019-03-18T06:05:09.988Z,11.17
2019-03-18T06:07:38.439Z,11.20
2019-03-18T06:10:11.960Z,9.67
2019-03-18T06:12:40.395Z,14.73
2019-03-18T06:15:10.764Z,13.73
2019-03-18T06:17:51.175Z,14.13
2019-03-18T06:20:13.075Z,9.50
2019-03-18T06:22:41.529Z,11.50
2019-03-18T06:25:10.093Z,11.80
2019-03-18T06:27:38.545Z,9.70
2019-03-18T06:30:14.558Z,10.17
2019-03-18T06:32:43.143Z,10.63
2019-03-18T06:35:11.767Z,12.13
2019-03-18T06:37:40.378Z,9.00
2019-03-18T06:40:11.073Z,10.07
2019-03-18T06:42:39.518Z,10.50
2019-03-18T06:45:11.067Z,8.97
2019-03-18T06:47:39.504Z,10.40
2019-03-18T06:50:09.799Z,9.57
2019-03-18T06:52:38.227Z,13.43
2019-03-18T06:55:07.217Z,12.93
2019-03-18T06:57:35.668Z,13.27
2019-03-18T07:00:10.359Z,9.60
2019-03-18T07:02:38.864Z,15.17
2019-03-18T07:05:08.147Z,13.77
2019-03-18T07:07:36.567Z,11.90
2019-03-18T07:10:08.107Z,11.20
2019-03-18T07:12:36.516Z,11.67
2019-03-18T07:15:05.603Z,11.60
2019-03-18T07:17:34.022Z,11.03
2019-03-18T07:20:02.559Z,12.10
2019-03-18T07:22:31.023Z,15.03
2019-03-18T07:24:59.536Z,10.83
2019-03-18T07:27:27.979Z,11.53
2019-03-18T07:29:56.427Z,12.97
2019-03-18T07:32:24.853Z,9.63
2019-03-18T07:34:53.301Z,8.93
2019-03-18T07:37:21.815Z,12.30
2019-03-18T07:39:50.316Z,8.87
2019-03-18T07:42:18.757Z,11.67
2019-03-18T07:44:47.221Z,11.93
2019-03-18T07:47:15.700Z,13.43
2019-03-18T07:49:44.191Z,12.70
2019-03-18T07:52:12.638Z,11.10
2019-03-18T07:54:41.131Z,11.93
2019-03-18T07:57:09.603Z,9.93
2019-03-18T07:59:38.056Z,12.90
2019-03-18T08:02:06.609Z,14.10
2019-03-18T08:04:37.672Z,9.83
2019-03-18T08:07:05.240Z,12.90
2019-03-18T08:09:33.701Z,13.27
2019-03-18T08:12:02.110Z,14.93
2019-03-18T08:14:30.565Z,15.50
2019-03-18T08:16:59.013Z,11.97
2019-03-18T08:19:27.444Z,11.00
2019-03-18T08:21:55.867Z,14.03
2019-03-18T08:24:24.327Z,13.53
2019-03-18T08:26:52.740Z,11.03
2019-03-18T08:29:21.191Z,12.63
2019-03-18T08:31:49.644Z,13.53
2019-03-18T08:34:18.109Z,10.53
2019-03-18T08:36:46.608Z,14.57
2019-03-18T08:39:15.164Z,14.20
2019-03-18T08:41:43.587Z,11.20
2019-03-18T08:44:12.111Z,12.77
2019-03-18T08:46:40.536Z,10.33
2019-03-18T08:49:09.000Z,8.27
2019-03-18T08:51:37.429Z,11.57
2019-03-18T08:54:05.877Z,14.17
2019-03-18T08:56:34.308Z,9.17
2019-03-18T08:59:02.764Z,10.80
2019-03-18T09:01:31.192Z,9.60
2019-03-18T09:03:59.639Z,9.63
2019-03-18T09:06:30.294Z,12.47
2019-03-18T09:08:58.271Z,9.47
2019-03-18T09:11:26.687Z,8.17
2019-03-18T09:13:55.183Z,9.13
2019-03-18T09:16:23.644Z,9.37
2019-03-18T09:18:52.175Z,11.20
2019-03-18T09:21:20.682Z,10.27
2019-03-18T09:23:49.103Z,7.83
2019-03-18T09:26:17.630Z,9.30
2019-03-18T09:28:46.045Z,12.50
2019-03-18T09:31:14.647Z,8.37
2019-03-18T09:33:43.339Z,11.37
2019-03-18T09:36:11.784Z,8.13
2019-03-18T09:38:40.206Z,8.40
2019-03-18T09:41:08.731Z,8.63
2019-03-18T09:43:37.145Z,8.60
2019-03-18T09:46:05.649Z,8.53
2019-03-18T09:48:34.156Z,8.37
2019-03-18T09:51:02.667Z,6.60
2019-03-18T09:53:31.164Z,9.37
2019-03-18T09:55:59.614Z,7.57
2019-03-18T09:58:28.139Z,9.87
2019-03-18T10:00:56.595Z,9.90
2019-03-18T10:03:25.032Z,6.37
2019-03-18T10:05:53.563Z,11.17
2019-03-18T10:08:25.039Z,11.07
2019-03-18T10:10:52.171Z,8.13
2019-03-18T10:13:20.585Z,9.87
2019-03-18T10:15:49.024Z,6.97
2019-03-18T10:18:17.447Z,7.57
2019-03-18T10:20:46.042Z,12.60
2019-03-18T10:23:14.486Z,8.47
2019-03-18T10:25:43.013Z,7.40
2019-03-18T10:28:11.451Z,9.93
2019-03-18T10:30:39.900Z,10.47
2019-03-18T10:33:08.396Z,14.10
2019-03-18T10:35:36.825Z,9.10
2019-03-18T10:38:05.339Z,12.23
2019-03-18T10:40:33.908Z,9.67
2019-03-18T10:43:02.375Z,9.10
2019-03-18T10:45:30.801Z,7.87
2019-03-18T10:47:59.320Z,12.23
2019-03-18T10:50:27.808Z,9.30
2019-03-18T10:52:56.311Z,7.60
2019-03-18T10:55:24.882Z,12.67
2019-03-18T10:57:53.323Z,7.63
2019-03-18T11:00:21.822Z,9.17
2019-03-18T11:02:50.279Z,6.50
2019-03-18T11:05:18.878Z,8.67
2019-03-18T11:07:47.303Z,9.27
2019-03-18T11:10:16.272Z,10.17
2019-03-18T11:12:44.881Z,7.03
2019-03-18T11:15:23.048Z,6.17
2019-03-18T11:17:51.579Z,11.90
2019-03-18T11:20:20.147Z,8.37
2019-03-18T11:22:48.642Z,9.60
2019-03-18T11:25:17.668Z,6.80
2019-03-18T11:27:46.105Z,7.13
2019-03-18T11:30:15.879Z,11.23
2019-03-18T11:32:44.466Z,10.80
2019-03-18T11:35:13.345Z,6.23
2019-03-18T11:37:42.049Z,9.90
2019-03-18T11:40:22.703Z,7.20
2019-03-18T11:42:51.543Z,6.80
2019-03-18T11:45:19.991Z,9.50
2019-03-18T11:47:48.565Z,10.67
2019-03-18T11:50:20.929Z,5.80
2019-03-18T11:52:49.363Z,8.93
2019-03-18T11:55:26.847Z,7.73
2019-03-18T11:57:55.348Z,5.40
2019-03-18T12:00:25.168Z,7.13
2019-03-18T12:02:53.580Z,4.97
2019-03-18T12:05:26.060Z,6.10
2019-03-18T12:07:54.494Z,6.13
2019-03-18T12:10:25.705Z,4.53
2019-03-18T12:12:53.359Z,5.03
2019-03-18T12:15:25.661Z,5.10
2019-03-18T12:17:54.493Z,6.33
2019-03-18T12:20:25.386Z,6.57
2019-03-18T12:22:53.279Z,6.23
2019-03-18T12:25:21.783Z,6.80
2019-03-18T12:27:50.939Z,7.17
2019-03-18T12:30:21.067Z,6.40
2019-03-18T12:32:49.593Z,8.43
2019-03-18T12:35:18.136Z,6.63
2019-03-18T12:37:47.075Z,9.87
2019-03-18T12:40:16.375Z,7.70
2019-03-18T12:42:45.165Z,9.67
2019-03-18T12:45:15.668Z,7.90
2019-03-18T12:47:44.461Z,10.07
2019-03-18T12:50:36.322Z,12.83
2019-03-18T12:52:50.067Z,12.77
2019-03-18T12:55:18.688Z,9.13
2019-03-18T12:57:47.213Z,6.40
2019-03-18T13:00:30.718Z,4.07
2019-03-18T13:02:59.609Z,5.70
2019-03-18T13:05:28.099Z,5.23
2019-03-18T13:07:56.638Z,7.87
2019-03-18T13:10:25.256Z,5.60
2019-03-18T13:12:53.770Z,3.90
2019-03-18T13:15:22.286Z,8.20
2019-03-18T13:17:50.744Z,5.50
2019-03-18T13:20:22.604Z,5.27
2019-03-18T13:22:53.740Z,6.40
2019-03-18T13:25:21.280Z,8.13
2019-03-18T13:27:49.751Z,8.37
2019-03-18T13:30:24.188Z,8.63
2019-03-18T13:32:52.763Z,5.87
2019-03-18T13:35:21.238Z,5.80
2019-03-18T13:37:49.705Z,8.17
2019-03-18T13:40:20.922Z,7.60
2019-03-18T13:42:49.416Z,6.90
2019-03-18T13:45:19.052Z,8.30
2019-03-18T13:47:47.496Z,9.87
2019-03-18T13:50:21.360Z,10.50
2019-03-18T13:52:49.835Z,11.37
2019-03-18T13:55:18.430Z,15.50
2019-03-18T13:57:46.924Z,10.67
2019-03-18T14:00:19.955Z,8.93
2019-03-18T14:02:48.543Z,8.63
2019-03-18T14:05:16.966Z,5.03
2019-03-18T14:07:45.398Z,6.00
2019-03-18T14:10:16.945Z,7.73
2019-03-18T14:12:45.391Z,4.70
2019-03-18T14:15:21.247Z,6.07
2019-03-18T14:17:49.845Z,5.30
2019-03-18T14:20:20.232Z,7.13
2019-03-18T14:22:48.796Z,7.03
2019-03-18T14:25:17.213Z,4.27
2019-03-18T14:27:45.749Z,5.10
2019-03-18T14:30:19.691Z,4.73
2019-03-18T14:32:48.204Z,6.30
2019-03-18T14:35:16.779Z,6.30
2019-03-18T14:37:45.552Z,6.50
2019-03-18T14:40:21.837Z,4.20
2019-03-18T14:42:50.339Z,3.93
2019-03-18T14:45:20.342Z,3.83
2019-03-18T14:47:50.479Z,6.60
2019-03-18T14:50:19.772Z,8.77
2019-03-18T14:52:48.280Z,5.73
2019-03-18T14:55:20.204Z,6.43
2019-03-18T14:57:48.771Z,4.47
2019-03-18T15:00:24.659Z,5.00
2019-03-18T15:02:53.126Z,6.87
2019-03-18T15:05:21.551Z,4.97
2019-03-18T15:07:50.076Z,5.63
2019-03-18T15:10:28.998Z,6.20
2019-03-18T15:12:57.478Z,10.53
2019-03-18T15:15:26.679Z,8.47
2019-03-18T15:17:55.271Z,7.13
2019-03-18T15:20:28.611Z,7.47
2019-03-18T15:22:57.210Z,6.73
2019-03-18T15:25:35.663Z,5.47
2019-03-18T15:28:04.365Z,7.33
2019-03-18T15:30:32.994Z,6.63
2019-03-18T15:33:01.576Z,8.20
2019-03-18T15:35:30.018Z,10.20
2019-03-18T15:37:58.471Z,10.03
2019-03-18T15:40:28.283Z,8.97
2019-03-18T15:42:56.743Z,8.40
2019-03-18T15:45:25.279Z,6.13
2019-03-18T15:47:53.776Z,7.00
2019-03-18T15:50:26.293Z,7.57
2019-03-18T15:52:54.818Z,8.33
2019-03-18T15:55:24.303Z,10.00
2019-03-18T15:57:53.394Z,5.00
2019-03-18T16:00:32.130Z,8.10
2019-03-18T16:03:01.000Z,9.73
2019-03-18T16:05:29.503Z,7.67
2019-03-18T16:07:57.951Z,7.67
2019-03-18T16:10:30.011Z,7.13
2019-03-18T16:12:58.488Z,7.73
2019-03-18T16:15:26.900Z,7.97
2019-03-18T16:17:55.328Z,7.37
2019-03-18T16:20:26.146Z,10.00
2019-03-18T16:22:54.703Z,6.63
2019-03-18T16:25:23.223Z,8.00
2019-03-18T16:27:51.755Z,6.50
2019-03-18T16:30:21.771Z,6.37
2019-03-18T16:32:50.473Z,8.07
2019-03-18T16:35:18.955Z,9.60
2019-03-18T16:37:47.652Z,9.03
2019-03-18T16:40:18.609Z,13.47
2019-03-18T16:42:47.029Z,8.17
2019-03-18T16:45:17.492Z,10.43
2019-03-18T16:47:46.147Z,10.37
2019-03-18T16:50:20.277Z,10.90
2019-03-18T16:52:48.702Z,9.73
2019-03-18T16:55:17.158Z,8.80
2019-03-18T16:57:45.676Z,9.73
2019-03-18T17:00:16.411Z,7.90
2019-03-18T17:02:45.263Z,8.03
2019-03-18T17:05:13.951Z,8.63
2019-03-18T17:07:42.652Z,7.57
2019-03-18T17:10:12.682Z,8.57
2019-03-18T17:12:41.276Z,10.50
2019-03-18T17:15:11.557Z,11.63
2019-03-18T17:17:40.091Z,10.13
2019-03-18T17:20:14.279Z,10.23
2019-03-18T17:22:49.194Z,11.57
2019-03-18T17:25:16.070Z,10.70
2019-03-18T17:27:44.637Z,11.87
2019-03-18T17:30:18.573Z,10.83
2019-03-18T17:32:47.380Z,11.37
2019-03-18T17:35:16.098Z,8.80
2019-03-18T17:37:45.046Z,8.20
2019-03-18T17:40:15.003Z,8.53
2019-03-18T17:42:43.750Z,13.77
2019-03-18T17:45:13.949Z,7.07
2019-03-18T17:47:42.408Z,9.90
2019-03-18T17:50:13.922Z,6.10
2019-03-18T17:52:42.608Z,9.50
2019-03-18T17:55:11.195Z,9.10
2019-03-18T17:57:39.700Z,7.87
2019-03-18T18:00:11.920Z,11.60
2019-03-18T18:02:40.711Z,8.00
2019-03-18T18:05:09.369Z,7.33
2019-03-18T18:07:38.036Z,11.60
2019-03-18T18:10:11.002Z,10.70
2019-03-18T18:12:39.699Z,13.83
2019-03-18T18:15:10.260Z,10.73
2019-03-18T18:17:39.056Z,9.70
2019-03-18T18:20:15.475Z,8.63
2019-03-18T18:22:44.220Z,12.50
2019-03-18T18:25:13.954Z,8.30
2019-03-18T18:27:42.522Z,11.67
2019-03-18T18:30:15.562Z,11.60
2019-03-18T18:32:44.094Z,11.13
2019-03-18T18:35:13.579Z,16.50
2019-03-18T18:37:42.044Z,13.30
2019-03-18T18:40:13.542Z,14.30
2019-03-18T18:42:42.002Z,12.67
2019-03-18T18:45:12.324Z,12.47
2019-03-18T18:47:41.104Z,14.67
2019-03-18T18:52:46.486Z,12.80
2019-03-18T18:55:15.310Z,14.57
2019-03-18T18:57:43.811Z,16.43
2019-03-18T19:00:16.667Z,12.27
2019-03-18T19:02:45.194Z,17.00
2019-03-18T19:05:15.020Z,14.90
2019-03-18T19:07:43.972Z,12.30
2019-03-18T19:10:21.956Z,13.77
2019-03-18T19:12:50.667Z,11.43
2019-03-18T19:15:22.538Z,12.43
2019-03-18T19:17:51.399Z,13.70
2019-03-18T19:20:20.624Z,10.93
2019-03-18T19:22:49.411Z,11.87
2019-03-18T19:25:18.362Z,11.67
2019-03-18T19:27:47.163Z,15.43
2019-03-18T19:30:22.457Z,17.13
2019-03-18T19:32:51.152Z,17.57
2019-03-18T19:35:20.918Z,13.13
2019-03-18T19:37:49.616Z,13.17
2019-03-18T19:40:22.314Z,14.73
2019-03-18T19:42:50.856Z,13.23
2019-03-18T19:45:19.641Z,11.90
2019-03-18T19:47:48.243Z,12.27
2019-03-18T19:50:30.164Z,9.13
2019-03-18T19:52:58.641Z,14.73
2019-03-18T19:55:27.157Z,15.13
2019-03-18T19:57:55.644Z,11.07
2019-03-18T20:00:26.088Z,13.83
2019-03-18T20:02:54.641Z,13.73
2019-03-18T20:05:23.220Z,13.73
2019-03-18T20:07:51.662Z,11.77
2019-03-18T20:10:21.397Z,15.23
2019-03-18T20:12:50.108Z,10.33
2019-03-18T20:15:19.626Z,12.37
2019-03-18T20:17:48.210Z,12.93
2019-03-18T20:20:18.353Z,11.37
2019-03-18T20:22:48.936Z,11.20
2019-03-18T20:25:17.203Z,13.47
2019-03-18T20:27:45.746Z,11.33
2019-03-18T20:30:19.238Z,11.40
2019-03-18T20:32:47.670Z,12.27
2019-03-18T20:35:18.814Z,11.47
2019-03-18T20:37:47.387Z,16.10
2019-03-18T20:40:17.102Z,10.97
2019-03-18T20:42:46.350Z,13.70
2019-03-18T20:45:16.308Z,12.27
2019-03-18T20:47:44.872Z,12.87
2019-03-18T20:50:20.482Z,11.73
2019-03-18T20:52:48.940Z,13.33
2019-03-18T20:55:17.476Z,10.00
2019-03-18T20:57:46.085Z,17.03
2019-03-18T21:00:24.782Z,12.60
2019-03-18T21:02:53.466Z,12.83
2019-03-18T21:05:24.774Z,17.77
2019-03-18T21:07:52.292Z,9.33
2019-03-18T21:10:21.400Z,14.80
2019-03-18T21:12:49.845Z,13.00
2019-03-18T21:15:18.815Z,17.67
2019-03-18T21:17:47.404Z,13.13
2019-03-18T21:20:20.724Z,17.63
2019-03-18T21:22:49.253Z,14.07
2019-03-18T21:25:17.788Z,15.70
2019-03-18T21:27:46.301Z,16.10
2019-03-18T21:30:17.464Z,14.43
2019-03-18T21:32:45.893Z,13.40
2019-03-18T21:35:14.446Z,16.13
2019-03-18T21:37:43.010Z,13.07
2019-03-18T21:40:13.693Z,13.00
2019-03-18T21:42:42.226Z,19.77
2019-03-18T21:45:24.707Z,16.27
2019-03-18T21:47:53.384Z,14.27
2019-03-18T21:50:21.989Z,11.03
2019-03-18T21:52:50.470Z,15.40
2019-03-18T21:55:38.335Z,12.17
2019-03-18T21:58:06.767Z,12.63
2019-03-18T22:00:35.232Z,12.97
2019-03-18T22:03:03.688Z,14.23
2019-03-18T22:05:32.219Z,13.33
2019-03-18T22:08:00.653Z,11.83
2019-03-18T22:10:29.097Z,11.17
2019-03-18T22:12:57.587Z,11.77
2019-03-18T22:15:26.083Z,13.50
2019-03-18T22:17:54.542Z,10.20
2019-03-18T22:20:23.138Z,13.40
2019-03-18T22:22:51.847Z,12.33
2019-03-18T22:25:20.262Z,18.87
2019-03-18T22:27:48.720Z,13.93
2019-03-18T22:30:18.875Z,14.93
2019-03-18T22:32:47.708Z,12.77
2019-03-18T22:35:16.329Z,13.97
2019-03-18T22:37:44.748Z,12.07
2019-03-18T22:40:14.554Z,12.37
2019-03-18T22:42:43.080Z,12.97
2019-03-18T22:45:13.062Z,14.37
2019-03-18T22:47:41.659Z,12.40
2019-03-18T22:50:11.790Z,11.83
2019-03-18T22:52:40.365Z,8.50
2019-03-18T22:55:10.573Z,14.43
2019-03-18T22:57:39.327Z,13.20
2019-03-18T23:00:15.057Z,12.30
2019-03-18T23:02:43.548Z,12.90
2019-03-18T23:05:14.344Z,12.27
2019-03-18T23:07:42.775Z,14.63
2019-03-18T23:10:11.541Z,14.70
2019-03-18T23:12:39.974Z,15.03
2019-03-18T23:15:09.639Z,11.93
2019-03-18T23:17:38.520Z,13.30
2019-03-18T23:20:08.105Z,12.07
2019-03-18T23:22:36.539Z,15.57
2019-03-18T23:25:08.430Z,12.03
2019-03-18T23:27:37.004Z,14.53
2019-03-18T23:30:15.818Z,10.20
2019-03-18T23:32:44.304Z,8.93
2019-03-18T23:35:12.994Z,12.97
2019-03-18T23:37:41.424Z,10.03
2019-03-18T23:40:12.292Z,10.73
2019-03-18T23:42:40.896Z,9.43
2019-03-18T23:45:10.576Z,12.70
2019-03-18T23:47:38.998Z,14.20
2019-03-18T23:50:10.380Z,12.90
2019-03-18T23:52:38.839Z,12.47
2019-03-18T23:55:18.355Z,16.47
2019-03-18T23:57:39.177Z,15.10
